createdAt,value
2022-08-23T00:02:09.120Z,7.40
2022-08-23T00:04:35.008Z,7.20
2022-08-23T00:06:40.134Z,6.20
2022-08-23T00:08:48.442Z,6.68
2022-08-23T00:10:54.706Z,6.30
2022-08-23T00:12:59.225Z,6.32
2022-08-23T00:15:04.062Z,7.22
2022-08-23T00:17:10.355Z,6.18
2022-08-23T00:19:29.851Z,7.78
2022-08-23T00:21:34.165Z,6.97
2022-08-23T00:23:38.352Z,7.20
2022-08-23T00:25:42.664Z,6.93
2022-08-23T00:27:48.359Z,6.72
2022-08-23T00:29:55.321Z,6.40
2022-08-23T00:32:00.454Z,7.80
2022-08-23T00:34:04.903Z,6.55
2022-08-23T00:36:09.670Z,5.93
2022-08-23T00:38:32.322Z,6.88
2022-08-23T00:40:39.220Z,5.25
2022-08-23T00:43:06.248Z,7.38
2022-08-23T00:45:34.719Z,6.25
2022-08-23T00:47:45.045Z,6.22
2022-08-23T00:49:55.364Z,7.18
2022-08-23T00:52:07.865Z,6.15
2022-08-23T00:54:12.974Z,6.28
2022-08-23T00:56:19.815Z,5.80
2022-08-23T00:58:25.824Z,6.40
2022-08-23T01:00:33.969Z,6.20
2022-08-23T01:02:38.946Z,6.82
2022-08-23T01:04:48.324Z,4.88
2022-08-23T01:06:58.522Z,5.60
2022-08-23T01:09:07.344Z,6.40
2022-08-23T01:11:16.561Z,6.57
2022-08-23T01:13:25.186Z,7.05
2022-08-23T01:15:36.355Z,6.25
2022-08-23T01:17:47.457Z,6.07
2022-08-23T01:20:03.387Z,7.03
2022-08-23T01:24:19.260Z,6.20
2022-08-23T01:26:43.012Z,8.20
2022-08-23T01:28:47.532Z,8.32
2022-08-23T01:30:52.327Z,8.13
2022-08-23T01:32:59.598Z,8.05
2022-08-23T01:35:03.978Z,7.82
2022-08-23T01:37:10.364Z,7.88
2022-08-23T01:39:14.675Z,6.75
2022-08-23T01:41:20.628Z,6.18
2022-08-23T01:43:24.894Z,6.82
2022-08-23T01:45:32.052Z,5.38
2022-08-23T01:47:36.395Z,7.22
2022-08-23T01:49:41.091Z,6.20
2022-08-23T01:51:45.675Z,6.68
2022-08-23T01:53:50.793Z,6.63
2022-08-23T01:55:55.458Z,6.60
2022-08-23T01:58:03.800Z,6.60
2022-08-23T02:00:09.758Z,6.53
2022-08-23T02:02:17.834Z,7.75
2022-08-23T02:04:23.694Z,8.25
2022-08-23T02:06:28.397Z,9.90
2022-08-23T02:08:53.004Z,9.38
2022-08-23T02:11:08.311Z,10.18
2022-08-23T02:13:15.149Z,9.63
2022-08-23T02:15:40.403Z,9.88
2022-08-23T02:17:46.782Z,9.32
2022-08-23T02:19:51.202Z,10.63
2022-08-23T02:21:55.829Z,11.82
2022-08-23T02:24:00.247Z,10.40
2022-08-23T02:26:07.072Z,10.25
2022-08-23T02:28:11.886Z,7.47
2022-08-23T02:30:18.813Z,9.35
2022-08-23T02:32:27.006Z,10.43
2022-08-23T02:34:33.537Z,10.45
2022-08-23T02:36:38.239Z,9.88
2022-08-23T02:38:42.760Z,10.07
2022-08-23T02:40:53.006Z,6.82
2022-08-23T02:43:06.754Z,6.85
2022-08-23T02:45:13.295Z,6.40
2022-08-23T02:47:25.549Z,6.28
2022-08-23T02:49:44.499Z,7.45
2022-08-23T02:51:49.321Z,7.30
2022-08-23T02:53:54.447Z,8.52
2022-08-23T02:56:01.761Z,8.02
2022-08-23T02:58:07.258Z,8.32
2022-08-23T03:00:14.066Z,7.00
2022-08-23T03:02:18.849Z,6.95
2022-08-23T03:04:25.728Z,6.95
2022-08-23T03:06:30.216Z,6.60
2022-08-23T03:08:34.704Z,6.20
2022-08-23T03:10:43.406Z,7.60
2022-08-23T03:12:47.701Z,8.57
2022-08-23T03:14:52.683Z,7.78
2022-08-23T03:16:58.385Z,7.07
2022-08-23T03:19:03.596Z,6.68
2022-08-23T03:21:11.669Z,7.07
2022-08-23T03:23:16.173Z,7.03
2022-08-23T03:25:20.951Z,7.20
2022-08-23T03:27:44.535Z,7.10
2022-08-23T03:29:50.582Z,7.35
2022-08-23T03:31:55.586Z,7.20
2022-08-23T03:34:00.382Z,9.63
2022-08-23T03:36:08.757Z,7.20
2022-08-23T03:38:15.519Z,9.88
2022-08-23T03:40:23.020Z,7.07
2022-08-23T03:42:31.105Z,7.05
2022-08-23T03:44:35.978Z,6.97
2022-08-23T03:46:40.297Z,6.47
2022-08-23T03:48:44.572Z,6.85
2022-08-23T03:50:49.331Z,7.82
2022-08-23T03:52:53.885Z,7.38
2022-08-23T03:55:00.207Z,7.78
2022-08-23T03:57:10.633Z,6.95
2022-08-23T03:59:14.796Z,7.38
2022-08-23T04:01:19.350Z,8.43
2022-08-23T04:03:23.737Z,8.73
2022-08-23T04:05:48.290Z,7.15
2022-08-23T04:07:56.292Z,7.55
2022-08-23T04:10:03.474Z,7.82
2022-08-23T04:12:17.578Z,7.93
2022-08-23T04:14:22.802Z,7.97
2022-08-23T04:16:26.297Z,6.57
2022-08-23T04:18:31.752Z,7.25
2022-08-23T04:20:36.215Z,6.80
2022-08-23T04:22:42.364Z,7.55
2022-08-23T04:24:49.563Z,8.32
2022-08-23T04:26:55.688Z,8.65
2022-08-23T04:28:59.992Z,7.78
2022-08-23T04:31:05.904Z,6.53
2022-08-23T04:33:13.293Z,7.05
2022-08-23T04:35:20.950Z,7.07
2022-08-23T04:37:25.205Z,6.88
2022-08-23T04:39:29.819Z,7.13
2022-08-23T04:41:53.110Z,8.10
2022-08-23T04:43:59.089Z,7.22
2022-08-23T04:46:05.772Z,8.50
2022-08-23T04:48:12.518Z,6.50
2022-08-23T04:50:21.871Z,8.05
2022-08-23T04:52:51.105Z,8.25
2022-08-23T04:54:55.308Z,8.02
2022-08-23T04:57:35.304Z,8.07
2022-08-23T04:59:41.062Z,8.05
2022-08-23T05:01:45.772Z,7.70
2022-08-23T05:03:50.980Z,7.07
2022-08-23T05:05:58.231Z,7.90
2022-08-23T05:08:09.648Z,6.65
2022-08-23T05:10:16.845Z,8.73
2022-08-23T05:12:28.316Z,7.82
2022-08-23T05:14:32.866Z,7.93
2022-08-23T05:16:39.340Z,7.82
2022-08-23T05:18:48.259Z,7.38
2022-08-23T05:20:52.923Z,7.57
2022-08-23T05:22:57.502Z,7.65
2022-08-23T05:25:10.634Z,8.45
2022-08-23T05:27:15.467Z,8.07
2022-08-23T05:29:21.792Z,8.10
2022-08-23T05:31:31.229Z,7.60
2022-08-23T05:33:43.831Z,7.35
2022-08-23T05:35:49.076Z,7.55
2022-08-23T05:37:54.087Z,6.68
2022-08-23T05:39:58.779Z,8.75
2022-08-23T05:42:03.944Z,7.90
2022-08-23T05:44:08.483Z,7.72
2022-08-23T05:46:15.413Z,7.28
2022-08-23T05:48:29.089Z,6.80
2022-08-23T05:50:40.103Z,8.90
2022-08-23T05:52:50.911Z,7.85
2022-08-23T05:54:57.091Z,8.02
2022-08-23T05:57:21.924Z,7.38
2022-08-23T05:59:26.430Z,7.45
2022-08-23T06:01:33.767Z,6.95
2022-08-23T06:03:45.388Z,7.00
2022-08-23T06:05:51.904Z,7.85
2022-08-23T06:07:57.065Z,7.30
2022-08-23T06:10:03.786Z,7.30
2022-08-23T06:12:10.496Z,7.32
2022-08-23T06:14:16.721Z,8.50
2022-08-23T06:16:26.995Z,7.60
2022-08-23T06:18:31.788Z,7.97
2022-08-23T06:21:01.154Z,7.50
2022-08-23T06:23:16.771Z,8.20
2022-08-23T06:25:22.644Z,8.15
2022-08-23T06:27:34.925Z,8.25
2022-08-23T06:29:40.165Z,8.43
2022-08-23T06:32:05.708Z,8.13
2022-08-23T06:34:17.799Z,8.52
2022-08-23T06:36:45.561Z,7.50
2022-08-23T06:39:11.504Z,7.50
2022-08-23T06:41:34.209Z,6.85
2022-08-23T06:44:02.114Z,8.10
2022-08-23T06:46:11.778Z,7.65
2022-08-23T06:48:18.830Z,7.68
2022-08-23T06:50:24.130Z,9.23
2022-08-23T06:52:50.562Z,8.30
2022-08-23T06:55:10.597Z,7.43
2022-08-23T06:57:32.619Z,6.70
2022-08-23T06:59:55.669Z,7.28
2022-08-23T07:02:16.111Z,6.55
2022-08-23T07:04:38.727Z,7.10
2022-08-23T07:06:46.321Z,6.63
2022-08-23T07:08:52.901Z,6.32
2022-08-23T07:10:58.326Z,8.02
2022-08-23T07:13:04.740Z,7.20
2022-08-23T07:15:11.424Z,7.70
2022-08-23T07:17:17.942Z,6.93
2022-08-23T07:19:29.191Z,7.90
2022-08-23T07:21:34.803Z,7.00
2022-08-23T07:23:41.305Z,6.47
2022-08-23T07:25:50.395Z,5.93
2022-08-23T07:27:57.579Z,6.40
2022-08-23T07:30:02.697Z,7.50
2022-08-23T07:32:09.656Z,7.75
2022-08-23T07:34:15.847Z,6.55
2022-08-23T07:36:23.499Z,6.72
2022-08-23T07:38:30.703Z,7.78
2022-08-23T07:40:39.172Z,7.82
2022-08-23T07:42:48.112Z,7.35
2022-08-23T07:44:53.821Z,7.60
2022-08-23T07:47:00.704Z,7.43
2022-08-23T07:49:06.078Z,8.18
2022-08-23T07:51:16.322Z,7.20
2022-08-23T07:53:37.303Z,7.45
2022-08-23T07:55:59.229Z,8.43
2022-08-23T07:58:37.385Z,7.28
2022-08-23T08:01:23.928Z,6.60
2022-08-23T08:03:30.337Z,7.55
2022-08-23T08:06:09.171Z,8.07
2022-08-23T08:08:25.217Z,6.90
2022-08-23T08:10:30.441Z,7.10
2022-08-23T08:12:39.877Z,6.85
2022-08-23T08:14:59.360Z,7.70
2022-08-23T08:17:18.720Z,7.35
2022-08-23T08:19:57.342Z,6.85
2022-08-23T08:22:59.222Z,7.38
2022-08-23T08:25:46.023Z,7.82
2022-08-23T08:30:26.183Z,7.97
2022-08-23T08:32:31.309Z,7.50
2022-08-23T08:34:36.822Z,8.43
2022-08-23T08:36:50.468Z,7.75
2022-08-23T08:39:22.585Z,7.90
2022-08-23T08:41:48.646Z,7.32
2022-08-23T08:44:37.365Z,7.65
2022-08-23T08:46:51.840Z,7.10
2022-08-23T08:49:05.440Z,7.70
2022-08-23T08:51:21.303Z,6.72
2022-08-23T08:53:31.351Z,8.05
2022-08-23T08:55:52.938Z,8.00
2022-08-23T08:58:00.272Z,6.78
2022-08-23T09:00:12.888Z,7.55
2022-08-23T09:02:32.781Z,8.27
2022-08-23T09:04:43.601Z,7.82
2022-08-23T09:06:59.752Z,7.93
2022-08-23T09:09:22.822Z,7.78
2022-08-23T09:11:41.928Z,8.18
2022-08-23T09:14:32.722Z,8.23
2022-08-23T09:17:14.118Z,7.32
2022-08-23T09:19:33.171Z,8.02
2022-08-23T09:21:52.170Z,7.93
2022-08-23T09:24:36.388Z,7.50
2022-08-23T09:27:01.426Z,8.23
2022-08-23T09:29:24.272Z,8.85
2022-08-23T09:31:45.911Z,7.82
2022-08-23T09:34:43.946Z,7.35
2022-08-23T09:37:21.017Z,7.35
2022-08-23T09:39:30.975Z,7.78
2022-08-23T09:41:43.793Z,8.10
2022-08-23T09:43:50.121Z,6.97
2022-08-23T09:46:15.159Z,6.93
2022-08-23T09:48:40.734Z,6.95
2022-08-23T09:51:12.864Z,7.18
2022-08-23T09:53:30.118Z,8.35
2022-08-23T09:55:56.589Z,6.93
2022-08-23T09:58:33.502Z,7.55
2022-08-23T10:00:39.544Z,6.85
2022-08-23T10:02:47.902Z,7.35
2022-08-23T10:05:01.252Z,7.43
2022-08-23T10:07:26.171Z,7.60
2022-08-23T10:09:42.993Z,8.18
2022-08-23T10:11:54.743Z,7.05
2022-08-23T10:14:01.248Z,7.80
2022-08-23T10:16:16.414Z,7.32
2022-08-23T10:18:52.437Z,8.25
2022-08-23T10:21:07.641Z,7.43
2022-08-23T10:23:25.746Z,8.15
2022-08-23T10:25:42.519Z,8.70
2022-08-23T10:28:17.482Z,8.18
2022-08-23T10:30:44.944Z,7.55
2022-08-23T10:33:18.438Z,8.85
2022-08-23T10:36:26.850Z,7.78
2022-08-23T10:46:33.610Z,6.57
2022-08-23T10:49:41.275Z,7.75
2022-08-23T11:02:42.666Z,7.50
2022-08-23T11:06:18.140Z,7.95
2022-08-23T11:08:58.808Z,7.78
2022-08-23T11:15:14.364Z,6.75
2022-08-23T11:18:24.238Z,8.07
2022-08-23T11:21:41.358Z,7.95
2022-08-23T11:24:59.527Z,7.93
2022-08-23T11:27:51.317Z,8.43
2022-08-23T11:31:24.467Z,7.80
2022-08-23T11:34:20.828Z,8.25
2022-08-23T11:36:52.457Z,8.13
2022-08-23T11:39:38.475Z,7.75
2022-08-23T11:42:51.545Z,8.15
2022-08-23T11:46:50.492Z,8.25
2022-08-23T11:50:16.499Z,8.60
2022-08-23T11:53:54.454Z,8.75
2022-08-23T12:01:45.459Z,8.30
2022-08-23T12:06:27.955Z,9.00
2022-08-23T12:09:18.149Z,8.45
2022-08-23T12:12:24.532Z,9.68
2022-08-23T12:15:25.504Z,9.43
2022-08-23T12:18:25.091Z,9.65
2022-08-23T12:21:35.546Z,10.23
2022-08-23T12:27:36.654Z,9.95
2022-08-23T12:30:11.346Z,8.95
2022-08-23T12:32:41.960Z,9.05
2022-08-23T12:35:31.809Z,10.35
2022-08-23T12:38:03.394Z,9.73
2022-08-23T12:40:32.231Z,9.65
2022-08-23T12:42:44.806Z,9.88
2022-08-23T12:45:18.600Z,10.05
2022-08-23T12:47:46.421Z,9.80
2022-08-23T12:50:33.048Z,10.00
2022-08-23T12:53:16.007Z,10.30
2022-08-23T12:56:31.409Z,9.77
2022-08-23T12:59:46.974Z,8.55
2022-08-23T13:02:00.455Z,9.55
2022-08-23T13:04:19.845Z,8.98
2022-08-23T13:07:30.643Z,8.63
2022-08-23T13:09:53.460Z,8.88
2022-08-23T13:12:24.943Z,8.63
2022-08-23T13:15:10.024Z,8.13
2022-08-23T13:18:06.065Z,9.45
2022-08-23T13:20:39.437Z,8.07
2022-08-23T13:23:06.690Z,8.50
2022-08-23T13:26:03.125Z,8.65
2022-08-23T13:28:43.852Z,8.63
2022-08-23T13:31:33.639Z,8.40
2022-08-23T13:35:02.714Z,8.05
2022-08-23T13:41:41.321Z,9.13
2022-08-23T13:52:06.791Z,7.20
2022-08-23T13:54:56.468Z,7.70
2022-08-23T13:57:38.975Z,8.20
2022-08-23T14:00:38.433Z,9.63
2022-08-23T14:03:12.739Z,8.38
2022-08-23T14:06:30.461Z,7.72
2022-08-23T14:09:28.692Z,8.68
2022-08-23T14:12:38.690Z,7.78
2022-08-23T14:16:32.686Z,7.63
2022-08-23T14:20:33.449Z,7.43
2022-08-23T14:23:02.394Z,7.57
2022-08-23T14:26:22.315Z,8.13
2022-08-23T14:30:02.848Z,7.38
2022-08-23T14:34:17.699Z,8.23
2022-08-23T14:40:46.029Z,8.25
2022-08-23T14:44:21.582Z,8.65
2022-08-23T14:47:33.309Z,7.30
2022-08-23T14:50:38.213Z,7.60
2022-08-23T14:54:20.644Z,8.93
2022-08-23T15:02:05.083Z,8.10
2022-08-23T15:05:38.313Z,7.57
2022-08-23T15:09:12.847Z,8.05
2022-08-23T15:15:42.481Z,8.20
2022-08-23T15:18:40.349Z,7.85
2022-08-23T15:21:19.272Z,8.35
2022-08-23T15:27:37.773Z,8.45
2022-08-23T15:30:34.229Z,7.93
2022-08-23T15:33:10.729Z,8.85
2022-08-23T15:36:09.162Z,9.00
2022-08-23T15:38:50.036Z,8.30
2022-08-23T15:41:41.941Z,9.30
2022-08-23T15:44:28.466Z,8.75
2022-08-23T15:47:03.374Z,8.25
2022-08-23T15:49:20.924Z,9.25
2022-08-23T15:51:59.208Z,8.48
2022-08-23T15:54:28.751Z,8.27
2022-08-23T15:56:48.029Z,8.38
2022-08-23T15:59:53.116Z,7.78
2022-08-23T16:03:18.684Z,8.10
2022-08-23T16:06:31.249Z,8.15
2022-08-23T16:12:26.381Z,8.93
2022-08-23T16:14:47.186Z,8.75
2022-08-23T16:17:18.225Z,9.23
2022-08-23T16:19:36.045Z,8.60
2022-08-23T16:22:07.778Z,9.75
2022-08-23T16:24:36.604Z,9.65
2022-08-23T16:27:12.860Z,8.70
2022-08-23T16:29:46.602Z,10.48
2022-08-23T16:32:15.396Z,10.82
2022-08-23T16:34:50.834Z,12.10
2022-08-23T16:37:24.622Z,11.52
2022-08-23T16:39:58.900Z,11.90
2022-08-23T16:42:38.190Z,11.57
2022-08-23T16:45:25.047Z,11.88
2022-08-23T16:48:05.527Z,10.73
2022-08-23T16:50:44.349Z,11.48
2022-08-23T16:53:21.976Z,11.13
2022-08-23T16:56:13.845Z,11.52
2022-08-23T16:59:40.440Z,9.90
2022-08-23T17:02:36.301Z,11.07
2022-08-23T17:08:16.179Z,11.15
2022-08-23T17:10:47.338Z,10.20
2022-08-23T17:13:16.754Z,10.00
2022-08-23T17:15:29.577Z,9.77
2022-08-23T17:17:57.544Z,8.85
2022-08-23T17:20:07.825Z,9.30
2022-08-23T17:22:19.180Z,8.70
2022-08-23T17:24:33.515Z,8.45
2022-08-23T17:26:44.278Z,8.10
2022-08-23T17:29:04.819Z,7.35
2022-08-23T17:31:13.647Z,7.88
2022-08-23T17:33:31.847Z,6.00
2022-08-23T17:35:42.614Z,7.00
2022-08-23T17:37:47.493Z,5.63
2022-08-23T17:39:53.296Z,5.68
2022-08-23T17:41:58.870Z,5.18
2022-08-23T17:44:04.318Z,4.25
2022-08-23T17:46:09.284Z,3.70
2022-08-23T17:48:14.989Z,4.30
2022-08-23T17:50:26.625Z,5.10
2022-08-23T17:52:31.407Z,4.37
2022-08-23T17:54:35.818Z,5.20
2022-08-23T17:56:42.488Z,4.50
2022-08-23T17:58:55.216Z,4.50
2022-08-23T18:00:59.700Z,4.88
2022-08-23T18:03:04.330Z,4.32
2022-08-23T18:05:10.684Z,3.90
2022-08-23T18:07:16.613Z,4.32
2022-08-23T18:09:21.378Z,4.63
2022-08-23T18:11:26.141Z,4.35
2022-08-23T18:13:30.617Z,4.18
2022-08-23T18:15:35.851Z,4.65
2022-08-23T18:17:43.244Z,4.30
2022-08-23T18:19:47.644Z,3.97
2022-08-23T18:21:52.259Z,4.00
2022-08-23T18:23:59.763Z,5.20
2022-08-23T18:26:07.657Z,4.72
2022-08-23T18:28:13.431Z,5.30
2022-08-23T18:30:18.531Z,4.35
2022-08-23T18:32:23.252Z,4.85
2022-08-23T18:34:28.074Z,5.03
2022-08-23T18:36:32.826Z,5.75
2022-08-23T18:38:37.134Z,5.82
2022-08-23T18:40:46.966Z,5.50
2022-08-23T18:42:52.326Z,4.97
2022-08-23T18:44:56.973Z,4.53
2022-08-23T18:47:07.424Z,3.65
2022-08-23T18:49:13.328Z,3.90
2022-08-23T18:51:17.912Z,4.50
2022-08-23T18:53:22.777Z,4.20
2022-08-23T18:55:26.987Z,4.00
2022-08-23T18:57:33.788Z,4.30
2022-08-23T18:59:39.069Z,4.22
2022-08-23T19:01:45.249Z,4.60
2022-08-23T19:03:49.739Z,4.88
2022-08-23T19:05:54.299Z,4.15
2022-08-23T19:07:59.562Z,4.97
2022-08-23T19:10:04.316Z,4.00
2022-08-23T19:12:12.489Z,4.47
2022-08-23T19:14:20.341Z,3.95
2022-08-23T19:16:26.600Z,4.47
2022-08-23T19:18:31.508Z,4.60
2022-08-23T19:20:37.390Z,4.65
2022-08-23T19:22:42.382Z,3.97
2022-08-23T19:24:47.489Z,4.45
2022-08-23T19:26:55.122Z,5.28
2022-08-23T19:29:00.327Z,4.30
2022-08-23T19:31:06.774Z,5.53
2022-08-23T19:33:12.268Z,4.70
2022-08-23T19:35:16.765Z,4.07
2022-08-23T19:37:23.201Z,3.92
2022-08-23T19:39:27.790Z,4.00
2022-08-23T19:41:32.539Z,3.78
2022-08-23T19:43:39.697Z,3.22
2022-08-23T19:45:44.459Z,4.05
2022-08-23T19:48:05.860Z,3.50
2022-08-23T19:50:11.546Z,2.90
2022-08-23T19:52:22.416Z,2.90
2022-08-23T19:54:28.031Z,3.30
2022-08-23T19:56:40.200Z,3.72
2022-08-23T19:59:13.144Z,3.63
2022-08-23T20:01:17.591Z,4.03
2022-08-23T20:03:33.139Z,4.00
2022-08-23T20:05:38.270Z,3.63
2022-08-23T20:07:42.611Z,3.63
2022-08-23T20:09:47.558Z,4.05
2022-08-23T20:11:58.147Z,4.35
2022-08-23T20:14:05.650Z,4.88
2022-08-23T20:16:22.373Z,4.20
2022-08-23T20:18:28.797Z,4.68
2022-08-23T20:20:33.374Z,5.50
2022-08-23T20:22:59.493Z,4.63
2022-08-23T20:25:12.957Z,4.93
2022-08-23T20:27:31.363Z,4.80
2022-08-23T20:32:06.256Z,5.95
2022-08-23T20:34:12.163Z,5.22
2022-08-23T20:36:16.946Z,5.32
2022-08-23T20:38:26.405Z,5.18
2022-08-23T20:40:38.818Z,5.30
2022-08-23T20:42:44.059Z,5.13
2022-08-23T20:44:48.937Z,4.85
2022-08-23T20:46:55.996Z,5.43
2022-08-23T20:49:03.618Z,5.28
2022-08-23T20:51:10.184Z,6.03
2022-08-23T20:53:16.162Z,5.15
2022-08-23T20:55:21.189Z,5.05
2022-08-23T20:57:25.680Z,4.60
2022-08-23T20:59:33.064Z,5.18
2022-08-23T21:01:38.119Z,4.70
2022-08-23T21:03:42.821Z,4.60
2022-08-23T21:05:48.110Z,4.47
2022-08-23T21:07:57.153Z,4.25
2022-08-23T21:10:01.618Z,4.35
2022-08-23T21:12:07.715Z,5.13
2022-08-23T21:14:14.701Z,5.60
2022-08-23T21:16:20.956Z,4.60
2022-08-23T21:18:25.448Z,5.10
2022-08-23T21:20:30.079Z,4.85
2022-08-23T21:22:34.494Z,4.88
2022-08-23T21:24:40.938Z,4.78
2022-08-23T21:26:45.334Z,5.63
2022-08-23T21:28:50.149Z,4.60
2022-08-23T21:30:55.829Z,5.18
2022-08-23T21:33:01.098Z,5.18
2022-08-23T21:35:06.220Z,6.18
2022-08-23T21:37:13.921Z,5.47
2022-08-23T21:39:18.541Z,5.63
2022-08-23T21:41:35.940Z,5.50
2022-08-23T21:43:41.176Z,4.68
2022-08-23T21:45:45.857Z,5.88
2022-08-23T21:47:50.567Z,4.95
2022-08-23T21:49:54.986Z,5.20
2022-08-23T21:51:59.456Z,4.57
2022-08-23T21:54:04.103Z,5.38
2022-08-23T21:56:08.857Z,4.80
2022-08-23T21:58:15.718Z,5.85
2022-08-23T22:00:20.250Z,4.97
2022-08-23T22:02:24.792Z,5.38
2022-08-23T22:04:30.143Z,4.78
2022-08-23T22:06:35.120Z,5.00
2022-08-23T22:08:40.039Z,4.22
2022-08-23T22:10:56.790Z,4.03
2022-08-23T22:13:04.142Z,4.03
2022-08-23T22:15:11.397Z,4.78
2022-08-23T22:17:18.045Z,4.38
2022-08-23T22:19:22.701Z,4.90
2022-08-23T22:21:27.222Z,3.90
2022-08-23T22:23:37.076Z,5.20
2022-08-23T22:25:41.588Z,4.40
2022-08-23T22:27:47.539Z,4.65
2022-08-23T22:29:53.600Z,4.35
2022-08-23T22:31:59.455Z,4.70
2022-08-23T22:34:04.432Z,4.82
2022-08-23T22:36:12.714Z,4.40
2022-08-23T22:38:17.614Z,5.05
2022-08-23T22:40:22.378Z,4.47
2022-08-23T22:42:26.876Z,5.00
2022-08-23T22:44:32.511Z,4.05
2022-08-23T22:46:37.514Z,3.80
2022-08-23T22:48:43.798Z,3.97
2022-08-23T22:50:48.728Z,4.97
2022-08-23T22:52:53.187Z,4.15
2022-08-23T22:54:58.247Z,4.22
2022-08-23T22:57:02.726Z,4.43
2022-08-23T22:59:07.485Z,4.70
2022-08-23T23:01:18.680Z,4.20
2022-08-23T23:03:23.392Z,4.65
2022-08-23T23:05:30.166Z,5.15
2022-08-23T23:07:51.961Z,4.75
2022-08-23T23:09:56.838Z,4.57
2022-08-23T23:12:01.443Z,4.60
2022-08-23T23:14:07.018Z,5.18
2022-08-23T23:16:14.967Z,4.40
2022-08-23T23:18:21.053Z,4.95
2022-08-23T23:20:41.039Z,4.28
2022-08-23T23:24:50.920Z,4.97
2022-08-23T23:26:55.264Z,4.28
2022-08-23T23:28:59.716Z,4.78
2022-08-23T23:31:04.631Z,5.57
2022-08-23T23:33:09.299Z,5.40
2022-08-23T23:35:14.215Z,4.70
2022-08-23T23:37:18.705Z,4.35
2022-08-23T23:39:25.148Z,5.03
2022-08-23T23:41:30.063Z,4.75
2022-08-23T23:43:34.665Z,4.22
2022-08-23T23:45:39.339Z,4.10
2022-08-23T23:47:45.558Z,4.38
2022-08-23T23:49:50.755Z,4.28
2022-08-23T23:51:55.290Z,4.07
2022-08-23T23:54:01.326Z,4.35
2022-08-23T23:56:10.475Z,5.00
2022-08-23T23:58:14.961Z,4.17
